createdAt,value
2023-03-22T00:00:54.949Z,7.95
2023-03-22T00:03:23.570Z,7.95
2023-03-22T00:05:56.664Z,7.93
2023-03-22T00:08:44.788Z,7.90
2023-03-22T00:11:13.180Z,7.87
2023-03-22T00:13:43.274Z,7.85
2023-03-22T00:16:11.552Z,7.83
2023-03-22T00:18:39.730Z,7.81
2023-03-22T00:21:11.243Z,7.80
2023-03-22T00:23:39.521Z,7.81
2023-03-22T00:26:08.053Z,7.83
2023-03-22T00:28:36.795Z,7.82
2023-03-22T00:31:06.215Z,7.81
2023-03-22T00:33:35.552Z,7.81
2023-03-22T00:36:05.197Z,7.83
2023-03-22T00:38:45.388Z,7.86
2023-03-22T00:41:13.512Z,7.86
2023-03-22T00:43:42.156Z,7.88
2023-03-22T00:46:10.914Z,7.88
2023-03-22T00:48:39.241Z,7.85
2023-03-22T00:51:08.286Z,7.83
2023-03-22T00:53:39.933Z,7.82
2023-03-22T00:56:10.978Z,7.80
2023-03-22T00:59:02.103Z,7.79
2023-03-22T01:01:32.306Z,7.76
2023-03-22T01:04:03.259Z,7.73
2023-03-22T01:06:33.094Z,7.71
2023-03-22T01:09:01.690Z,7.72
2023-03-22T01:11:30.060Z,7.73
2023-03-22T01:13:59.747Z,7.72
2023-03-22T01:16:28.099Z,7.72
2023-03-22T01:18:56.592Z,7.73
2023-03-22T01:21:25.001Z,7.77
2023-03-22T01:23:53.399Z,7.81
2023-03-22T01:26:21.551Z,7.80
2023-03-22T01:28:50.471Z,7.82
2023-03-22T01:31:18.898Z,7.82
2023-03-22T01:33:47.187Z,7.80
2023-03-22T01:36:16.085Z,7.78
2023-03-22T01:38:44.214Z,7.74
2023-03-22T01:41:12.401Z,7.73
2023-03-22T01:43:42.456Z,7.72
2023-03-22T01:46:12.631Z,7.72
2023-03-22T01:48:46.165Z,7.72
2023-03-22T01:51:23.242Z,7.70
2023-03-22T01:54:04.618Z,7.69
2023-03-22T01:56:35.027Z,7.68
2023-03-22T01:59:03.852Z,7.67
2023-03-22T02:01:41.478Z,7.66
2023-03-22T02:04:12.542Z,7.63
2023-03-22T02:06:41.558Z,7.62
2023-03-22T02:09:18.488Z,7.56
2023-03-22T02:11:49.384Z,7.53
2023-03-22T02:14:35.216Z,7.53
2023-03-22T02:17:39.620Z,7.52
2023-03-22T02:20:28.446Z,7.52
2023-03-22T02:22:59.959Z,7.53
2023-03-22T02:25:47.043Z,7.52
2023-03-22T02:28:44.395Z,7.52
2023-03-22T02:31:16.121Z,7.53
2023-03-22T02:33:56.697Z,7.53
2023-03-22T02:36:34.911Z,7.53
2023-03-22T02:39:08.329Z,7.52
2023-03-22T02:41:58.204Z,7.52
2023-03-22T02:44:43.198Z,7.53
2023-03-22T02:47:19.016Z,7.52
2023-03-22T02:49:58.658Z,7.52
2023-03-22T02:52:29.593Z,7.51
2023-03-22T02:54:57.951Z,7.50
2023-03-22T02:57:30.950Z,7.49
2023-03-22T02:59:59.040Z,7.47
2023-03-22T03:02:27.700Z,7.45
2023-03-22T03:04:56.314Z,7.43
2023-03-22T03:07:27.046Z,7.42
2023-03-22T03:09:55.736Z,7.40
2023-03-22T03:12:24.957Z,7.38
2023-03-22T03:14:54.736Z,7.35
2023-03-22T03:17:49.307Z,7.34
2023-03-22T03:20:24.524Z,7.34
2023-03-22T03:23:14.650Z,7.34
2023-03-22T03:25:52.036Z,7.32
2023-03-22T03:28:30.221Z,7.30
2023-03-22T03:31:19.364Z,7.29
2023-03-22T03:33:53.600Z,7.28
2023-03-22T03:36:22.022Z,7.27
2023-03-22T03:38:50.690Z,7.25
2023-03-22T03:41:20.537Z,7.23
2023-03-22T03:43:51.546Z,7.22
2023-03-22T03:46:20.320Z,7.23
2023-03-22T03:48:49.208Z,7.24
2023-03-22T03:51:18.180Z,7.27
2023-03-22T03:53:46.518Z,7.27
2023-03-22T03:56:14.967Z,7.27
2023-03-22T03:58:46.152Z,7.29
2023-03-22T04:01:14.455Z,7.30
2023-03-22T04:04:00.142Z,7.29
2023-03-22T04:06:50.362Z,7.31
2023-03-22T04:09:22.229Z,7.31
2023-03-22T04:11:57.263Z,7.30
2023-03-22T04:14:26.159Z,7.29
2023-03-22T04:16:55.300Z,7.30
2023-03-22T04:19:24.149Z,7.33
2023-03-22T04:21:53.349Z,7.34
2023-03-22T04:24:22.488Z,7.36
2023-03-22T04:26:52.897Z,7.38
2023-03-22T04:29:26.013Z,7.39
2023-03-22T04:32:01.038Z,7.40
2023-03-22T04:34:42.840Z,7.42
2023-03-22T04:37:22.789Z,7.44
2023-03-22T04:39:55.868Z,7.46
2023-03-22T04:42:34.538Z,7.47
2023-03-22T04:45:29.487Z,7.51
2023-03-22T04:48:01.152Z,7.57
2023-03-22T04:50:31.034Z,7.62
2023-03-22T04:53:01.658Z,7.68
2023-03-22T04:55:39.213Z,7.71
2023-03-22T04:58:07.900Z,7.75
2023-03-22T05:00:39.165Z,7.76
2023-03-22T05:03:08.660Z,7.82
2023-03-22T05:05:52.928Z,7.87
2023-03-22T05:08:22.133Z,7.92
2023-03-22T05:10:52.407Z,7.95
2023-03-22T05:13:21.698Z,7.97
2023-03-22T05:15:51.988Z,8.02
2023-03-22T05:18:26.400Z,8.06
2023-03-22T05:20:56.209Z,8.08
2023-03-22T05:23:27.968Z,8.11
2023-03-22T05:25:58.671Z,8.12
2023-03-22T05:28:30.039Z,8.14
2023-03-22T05:31:08.496Z,8.16
2023-03-22T05:33:46.856Z,8.17
2023-03-22T05:36:17.076Z,8.21
2023-03-22T05:39:02.822Z,8.29
2023-03-22T05:41:36.333Z,8.36
2023-03-22T05:44:05.499Z,8.48
2023-03-22T05:46:37.166Z,8.57
2023-03-22T05:49:35.213Z,8.70
2023-03-22T05:52:06.178Z,8.81
2023-03-22T05:54:58.265Z,8.94
2023-03-22T05:57:27.454Z,9.05
2023-03-22T05:59:57.332Z,9.15
2023-03-22T06:02:29.566Z,9.24
2023-03-22T06:04:59.904Z,9.33
2023-03-22T06:07:29.104Z,9.43
2023-03-22T06:10:02.311Z,9.50
2023-03-22T06:12:32.630Z,9.58
2023-03-22T06:15:06.636Z,9.69
2023-03-22T06:17:43.361Z,9.80
2023-03-22T06:20:18.103Z,9.94
2023-03-22T06:22:53.934Z,10.09
2023-03-22T06:25:22.170Z,10.21
2023-03-22T06:27:52.146Z,10.32
2023-03-22T06:30:22.056Z,10.45
2023-03-22T06:33:11.892Z,10.59
2023-03-22T06:35:43.123Z,10.70
2023-03-22T06:38:13.714Z,10.77
2023-03-22T06:40:44.198Z,10.83
2023-03-22T06:43:13.298Z,10.87
2023-03-22T06:45:47.316Z,10.90
2023-03-22T06:48:18.982Z,10.97
2023-03-22T06:51:17.335Z,11.08
2023-03-22T06:53:51.160Z,11.14
2023-03-22T06:56:33.892Z,11.20
2023-03-22T06:59:11.999Z,11.25
2023-03-22T07:01:40.428Z,11.33
2023-03-22T07:04:13.065Z,11.47
2023-03-22T07:06:44.997Z,11.65
2023-03-22T07:09:13.702Z,11.82
2023-03-22T07:11:42.564Z,11.99
2023-03-22T07:14:11.641Z,12.18
2023-03-22T07:16:54.774Z,12.30
2023-03-22T07:19:24.528Z,12.43
2023-03-22T07:21:53.920Z,12.58
2023-03-22T07:24:32.216Z,12.66
2023-03-22T07:27:22.021Z,12.69
2023-03-22T07:29:55.820Z,12.77
2023-03-22T07:32:24.439Z,12.85
2023-03-22T07:35:06.195Z,12.83
2023-03-22T07:37:34.679Z,12.81
2023-03-22T07:40:13.205Z,12.77
2023-03-22T07:42:41.747Z,12.75
2023-03-22T07:45:28.891Z,12.72
2023-03-22T07:48:41.275Z,12.75
2023-03-22T07:51:38.190Z,12.75
2023-03-22T07:54:07.861Z,12.82
2023-03-22T07:56:36.529Z,12.91
2023-03-22T07:59:05.509Z,13.00
2023-03-22T08:01:33.889Z,13.08
2023-03-22T08:04:08.666Z,13.12
2023-03-22T08:06:50.094Z,13.11
2023-03-22T08:09:18.438Z,13.08
2023-03-22T08:11:47.052Z,13.06
2023-03-22T08:14:17.111Z,13.05
2023-03-22T08:16:49.609Z,13.08
2023-03-22T08:19:18.002Z,13.09
2023-03-22T08:21:47.021Z,13.15
2023-03-22T08:24:26.790Z,13.26
2023-03-22T08:27:04.966Z,13.33
2023-03-22T08:29:49.091Z,13.39
2023-03-22T08:32:17.978Z,13.37
2023-03-22T08:34:46.894Z,13.39
2023-03-22T08:37:16.297Z,13.38
2023-03-22T08:39:46.486Z,13.43
2023-03-22T08:42:40.704Z,13.53
2023-03-22T08:45:17.728Z,13.60
2023-03-22T08:47:52.277Z,13.73
2023-03-22T08:50:24.964Z,13.78
2023-03-22T08:53:01.027Z,13.84
2023-03-22T08:55:32.424Z,13.99
2023-03-22T08:58:15.036Z,14.11
2023-03-22T09:00:53.474Z,14.20
2023-03-22T09:03:26.448Z,14.34
2023-03-22T09:05:55.757Z,14.50
2023-03-22T09:08:24.479Z,14.66
2023-03-22T09:11:02.575Z,14.82
2023-03-22T09:13:32.449Z,15.01
2023-03-22T09:16:11.630Z,15.20
2023-03-22T09:18:40.560Z,15.42
2023-03-22T09:21:14.623Z,15.61
2023-03-22T09:23:50.655Z,15.80
2023-03-22T09:26:23.602Z,15.95
2023-03-22T09:28:53.063Z,16.06
2023-03-22T09:31:22.265Z,16.08
2023-03-22T09:33:59.573Z,16.08
2023-03-22T09:36:27.933Z,16.10
2023-03-22T09:38:57.348Z,16.08
2023-03-22T09:41:29.208Z,16.05
2023-03-22T09:44:01.784Z,16.04
2023-03-22T09:46:31.798Z,16.00
2023-03-22T09:49:00.488Z,15.85
2023-03-22T09:51:29.420Z,15.71
2023-03-22T09:53:57.916Z,15.71
2023-03-22T09:56:28.916Z,15.78
2023-03-22T09:59:04.700Z,15.83
2023-03-22T10:01:46.141Z,15.81
2023-03-22T10:04:14.487Z,15.78
2023-03-22T10:06:43.622Z,15.71
2023-03-22T10:09:17.505Z,15.59
2023-03-22T10:11:52.489Z,15.45
2023-03-22T10:14:39.987Z,15.35
2023-03-22T10:17:11.659Z,15.22
2023-03-22T10:19:51.056Z,15.09
2023-03-22T10:22:19.954Z,14.96
2023-03-22T10:24:48.519Z,14.87
2023-03-22T10:27:17.966Z,14.80
2023-03-22T10:29:49.137Z,14.72
2023-03-22T10:32:18.353Z,14.68
2023-03-22T10:34:47.530Z,14.62
2023-03-22T10:37:17.054Z,14.54
2023-03-22T10:39:53.016Z,14.48
2023-03-22T10:42:22.299Z,14.40
2023-03-22T10:44:57.934Z,14.32
2023-03-22T10:47:31.001Z,14.27
2023-03-22T10:49:59.514Z,14.31
2023-03-22T10:52:39.668Z,14.32
2023-03-22T10:55:13.038Z,14.30
2023-03-22T10:57:43.278Z,14.31
2023-03-22T11:00:15.634Z,14.36
2023-03-22T11:02:51.220Z,14.43
2023-03-22T11:05:24.899Z,14.49
2023-03-22T11:07:53.342Z,14.55
2023-03-22T11:10:33.069Z,14.60
2023-03-22T11:13:11.971Z,14.66
2023-03-22T11:15:41.743Z,14.75
2023-03-22T11:18:15.219Z,14.89
2023-03-22T11:20:52.556Z,14.95
2023-03-22T11:23:21.573Z,15.02
2023-03-22T11:25:50.388Z,15.08
2023-03-22T11:28:19.445Z,15.13
2023-03-22T11:31:06.469Z,15.16
2023-03-22T11:33:35.354Z,15.20
2023-03-22T11:36:05.379Z,15.30
2023-03-22T11:38:45.550Z,15.44
2023-03-22T11:41:17.288Z,15.60
2023-03-22T11:43:55.808Z,15.63
2023-03-22T11:46:24.664Z,15.68
2023-03-22T11:48:58.329Z,15.69
2023-03-22T11:51:33.689Z,15.70
2023-03-22T11:54:14.220Z,15.80
2023-03-22T11:56:46.340Z,15.89
2023-03-22T11:59:25.994Z,15.92
2023-03-22T12:02:03.563Z,15.96
2023-03-22T12:04:33.324Z,15.94
2023-03-22T12:07:03.711Z,15.94
2023-03-22T12:09:44.070Z,15.98
2023-03-22T12:12:18.040Z,15.99
2023-03-22T12:15:04.198Z,15.97
2023-03-22T12:17:35.664Z,15.98
2023-03-22T12:20:24.373Z,15.97
2023-03-22T12:22:53.652Z,15.96
2023-03-22T12:25:23.472Z,15.94
2023-03-22T12:27:59.967Z,15.88
2023-03-22T12:30:29.600Z,15.77
2023-03-22T12:33:09.749Z,15.67
2023-03-22T12:35:39.680Z,15.57
2023-03-22T12:38:20.395Z,15.46
2023-03-22T12:40:48.659Z,15.37
2023-03-22T12:43:38.206Z,15.37
2023-03-22T12:46:06.825Z,15.39
2023-03-22T12:48:46.692Z,15.41
2023-03-22T12:51:15.423Z,15.46
2023-03-22T12:53:45.656Z,15.49
2023-03-22T12:56:18.199Z,15.49
2023-03-22T12:58:52.973Z,15.47
2023-03-22T13:01:23.040Z,15.39
2023-03-22T13:03:52.953Z,15.28
2023-03-22T13:06:35.229Z,15.15
2023-03-22T13:09:10.147Z,14.98
2023-03-22T13:12:02.562Z,14.78
2023-03-22T13:14:52.248Z,14.52
2023-03-22T13:17:23.530Z,14.28
2023-03-22T13:20:07.061Z,14.06
2023-03-22T13:22:37.864Z,13.85
2023-03-22T13:25:17.317Z,13.63
2023-03-22T13:27:46.457Z,13.42
2023-03-22T13:30:21.950Z,13.24
2023-03-22T13:33:13.817Z,13.08
2023-03-22T13:35:42.818Z,12.99
2023-03-22T13:38:22.191Z,12.94
2023-03-22T13:41:05.010Z,12.88
2023-03-22T13:43:36.078Z,12.80
2023-03-22T13:46:17.382Z,12.72
2023-03-22T13:48:47.598Z,12.65
2023-03-22T13:51:37.700Z,12.55
2023-03-22T13:54:09.404Z,12.48
2023-03-22T13:56:57.353Z,12.45
2023-03-22T13:59:27.469Z,12.46
2023-03-22T14:01:56.973Z,12.46
2023-03-22T14:04:46.078Z,12.40
2023-03-22T14:07:26.084Z,12.28
2023-03-22T14:09:57.041Z,12.17
2023-03-22T14:12:27.876Z,12.13
2023-03-22T14:15:00.913Z,12.07
2023-03-22T14:17:39.431Z,12.04
2023-03-22T14:20:11.103Z,11.95
